Wilderville, Texas
Current Conditions -  °F | °C
As of 10:15 AM on Saturday 20 Dec 2014 (Local Time) from KT35 Reporting Station
Overcast Overcast  
Wind Chill: 50°   Ceiling: 700
Heat Index: 50°   Visibility: 7mi
Dew Point: 47°   Wind: 5mph
Humidity: 90%   Direction: 30°NNE
Pressure: 30.25"   Gusts: NA
Location:  31.0981°N, 96.99°W
Report Text: KT35 201615Z AUTO 03004KT 7SM OVC007 10/09 A3025 RMK AO2 T01000085
Loading
Personal Weather Stations






























Interactive Weather Map New forecast layout! Learn more

10-Day Weather Forecast

Advertisements
Track Severe Weather on mobile